createdAt,value
2018-12-26T00:05:43.216Z,100.00
2018-12-26T00:09:26.366Z,100.00
2018-12-26T00:12:50.774Z,100.00
2018-12-26T00:16:15.078Z,100.00
2018-12-26T00:19:32.034Z,100.00
2018-12-26T00:22:56.276Z,100.00
2018-12-26T00:26:20.508Z,100.00
2018-12-26T00:29:44.512Z,100.00
2018-12-26T00:33:08.575Z,100.00
2018-12-26T00:36:32.647Z,100.00
2018-12-26T00:39:56.632Z,100.00
2018-12-26T00:47:43.396Z,100.00
2018-12-26T00:51:07.740Z,100.00
2018-12-26T00:54:32.043Z,100.00
2018-12-26T00:57:56.044Z,100.00
2018-12-26T01:01:20.303Z,100.00
2018-12-26T01:04:44.962Z,100.00
2018-12-26T01:08:09.224Z,100.00
2018-12-26T01:11:33.422Z,100.00
2018-12-26T01:14:57.973Z,100.00
2018-12-26T01:18:22.334Z,100.00
2018-12-26T01:21:46.299Z,100.00
2018-12-26T01:25:10.299Z,100.00
2018-12-26T01:28:34.347Z,100.00
2018-12-26T01:35:47.761Z,100.00
2018-12-26T01:39:11.986Z,100.00
2018-12-26T01:42:36.222Z,100.00
2018-12-26T01:46:00.208Z,100.00
2018-12-26T01:49:55.792Z,100.00
2018-12-26T01:53:09.444Z,100.00
2018-12-26T01:56:52.714Z,100.00
2018-12-26T02:00:16.693Z,100.00
2018-12-26T02:03:40.665Z,100.00
2018-12-26T02:07:04.652Z,100.00
2018-12-26T02:10:47.903Z,100.00
2018-12-26T02:14:11.883Z,100.00
2018-12-26T02:17:54.892Z,100.00
2018-12-26T02:21:12.069Z,100.00
2018-12-26T02:24:36.342Z,100.00
2018-12-26T02:28:00.559Z,100.00
2018-12-26T02:31:43.568Z,100.00
2018-12-26T02:35:07.558Z,100.00
2018-12-26T02:38:31.516Z,100.00
2018-12-26T02:41:55.493Z,100.00
2018-12-26T02:45:19.712Z,100.00
2018-12-26T02:48:43.689Z,100.00
2018-12-26T02:52:07.656Z,100.00
2018-12-26T02:55:31.890Z,100.00
2018-12-26T02:58:56.140Z,100.00
2018-12-26T03:09:33.020Z,100.00
2018-12-26T03:12:57.006Z,100.00
2018-12-26T03:16:21.246Z,100.00
2018-12-26T03:19:37.979Z,100.00
2018-12-26T03:26:31.738Z,100.00
2018-12-26T03:29:55.732Z,100.00
2018-12-26T03:33:19.715Z,100.00
2018-12-26T03:36:43.710Z,100.00
2018-12-26T03:40:28.702Z,100.00
2018-12-26T03:43:52.974Z,100.00
2018-12-26T03:47:37.734Z,100.00
2018-12-26T03:54:52.263Z,100.00
2018-12-26T03:57:57.255Z,100.00
2018-12-26T04:01:01.870Z,100.00
2018-12-26T04:04:26.187Z,100.00
2018-12-26T04:07:50.575Z,100.00
2018-12-26T04:11:14.569Z,100.00
2018-12-26T04:14:38.538Z,100.00
2018-12-26T04:21:58.884Z,100.00
2018-12-26T04:29:13.384Z,100.00
2018-12-26T04:32:37.428Z,100.00
2018-12-26T04:36:20.671Z,100.00
2018-12-26T04:39:44.652Z,100.00
2018-12-26T04:46:51.568Z,100.00
2018-12-26T04:50:15.848Z,100.00
2018-12-26T04:53:40.146Z,100.00
2018-12-26T05:00:33.960Z,100.00
2018-12-26T05:03:57.934Z,100.00
2018-12-26T05:07:21.936Z,100.00
2018-12-26T05:14:15.150Z,100.00
2018-12-26T05:17:39.135Z,100.00
2018-12-26T05:20:55.582Z,100.00
2018-12-26T05:24:19.576Z,100.00
2018-12-26T05:27:43.804Z,100.00
2018-12-26T05:31:07.777Z,100.00
2018-12-26T05:34:31.744Z,100.00
2018-12-26T05:37:55.725Z,100.00
2018-12-26T05:41:38.733Z,100.00
2018-12-26T05:45:02.703Z,100.00
2018-12-26T05:48:26.687Z,100.00
2018-12-26T05:51:50.671Z,100.00
2018-12-26T05:55:14.894Z,100.00
2018-12-26T05:58:38.856Z,100.00
2018-12-26T06:02:03.144Z,100.00
2018-12-26T06:05:27.108Z,100.00
2018-12-26T06:08:51.085Z,100.00
2018-12-26T06:12:15.073Z,100.00
2018-12-26T06:15:39.040Z,100.00
2018-12-26T06:18:55.722Z,100.00
2018-12-26T06:22:19.696Z,100.00
2018-12-26T06:25:43.951Z,100.00
2018-12-26T06:29:07.932Z,100.00
2018-12-26T06:32:31.912Z,100.00
2018-12-26T06:35:55.900Z,100.00
2018-12-26T06:39:19.875Z,100.00
2018-12-26T06:46:14.717Z,100.00
2018-12-26T06:49:57.764Z,100.00
2018-12-26T06:53:21.747Z,100.00
2018-12-26T07:00:28.927Z,100.00
2018-12-26T07:04:12.181Z,100.00
2018-12-26T07:07:36.257Z,100.00
2018-12-26T07:11:00.449Z,100.00
2018-12-26T07:14:24.517Z,100.00
2018-12-26T07:17:48.511Z,100.00
2018-12-26T07:21:05.326Z,100.00
2018-12-26T07:24:29.608Z,100.00
2018-12-26T07:27:53.626Z,100.00
2018-12-26T07:35:00.826Z,100.00
2018-12-26T07:38:24.776Z,100.00
2018-12-26T07:41:49.084Z,100.00
2018-12-26T07:45:32.102Z,100.00
2018-12-26T07:52:25.824Z,100.00
2018-12-26T07:55:49.812Z,100.00
2018-12-26T07:59:13.843Z,100.00
2018-12-26T08:02:38.064Z,100.00
2018-12-26T08:09:31.489Z,100.00
2018-12-26T08:16:20.065Z,100.00
2018-12-26T08:19:36.986Z,100.00
2018-12-26T08:23:00.957Z,100.00
2018-12-26T08:26:24.944Z,100.00
2018-12-26T08:29:48.928Z,100.00
2018-12-26T08:33:13.141Z,100.00
2018-12-26T08:36:17.785Z,100.00
2018-12-26T08:39:41.763Z,100.00
2018-12-26T08:46:30.299Z,100.00
2018-12-26T08:49:54.276Z,100.00
2018-12-26T08:53:18.306Z,100.00
2018-12-26T08:56:23.018Z,100.00
2018-12-26T08:59:27.908Z,100.00
2018-12-26T09:03:11.930Z,100.00
2018-12-26T09:09:46.204Z,100.00
2018-12-26T09:13:10.495Z,100.00
2018-12-26T09:19:57.671Z,100.00
2018-12-26T09:23:21.669Z,100.00
2018-12-26T09:26:45.652Z,100.00
2018-12-26T09:34:00.636Z,100.00
2018-12-26T09:37:43.860Z,100.00
2018-12-26T09:41:08.169Z,100.00
2018-12-26T09:44:32.134Z,100.00
2018-12-26T09:47:56.112Z,100.00
2018-12-26T09:51:20.322Z,100.00
2018-12-26T09:54:44.277Z,100.00
2018-12-26T09:58:08.286Z,95.75
2018-12-26T10:01:32.552Z,97.72
2018-12-26T10:04:37.167Z,95.78
2018-12-26T10:07:41.797Z,93.77
2018-12-26T10:10:46.661Z,94.24
2018-12-26T10:14:10.626Z,93.37
2018-12-26T10:17:34.602Z,94.15
2018-12-26T10:20:39.213Z,93.46
2018-12-26T10:24:03.170Z,94.19
2018-12-26T10:27:27.133Z,94.14
2018-12-26T10:30:51.121Z,94.17
2018-12-26T10:34:15.364Z,93.50
2018-12-26T10:37:41.066Z,91.67
2018-12-26T10:41:05.339Z,92.85
2018-12-26T10:44:29.300Z,91.37
2018-12-26T10:47:53.270Z,93.19
2018-12-26T10:51:17.235Z,93.93
2018-12-26T11:02:14.453Z,88.56
2018-12-26T11:05:38.450Z,88.60
2018-12-26T11:09:02.658Z,89.20
2018-12-26T11:20:07.034Z,86.39
2018-12-26T11:23:50.241Z,86.76
2018-12-26T11:27:14.502Z,84.95
2018-12-26T11:37:55.035Z,81.67
2018-12-26T11:41:19.083Z,81.04
2018-12-26T11:44:43.394Z,84.12
2018-12-26T11:48:07.687Z,85.70
2018-12-26T11:51:50.926Z,85.91
2018-12-26T11:59:05.411Z,85.17
2018-12-26T12:02:29.375Z,83.81
2018-12-26T12:13:05.709Z,83.67
2018-12-26T12:16:29.988Z,83.21
2018-12-26T12:19:47.398Z,83.42
2018-12-26T12:23:11.364Z,82.76
2018-12-26T12:30:18.566Z,80.46
2018-12-26T12:33:42.805Z,80.19
2018-12-26T12:37:06.763Z,77.65
2018-12-26T12:40:30.777Z,77.14
2018-12-26T12:43:54.704Z,76.61
2018-12-26T12:47:18.939Z,76.51
2018-12-26T12:51:01.942Z,77.17
2018-12-26T12:54:46.944Z,78.88
2018-12-26T12:58:10.929Z,79.65
2018-12-26T13:01:53.918Z,78.99
2018-12-26T13:05:17.882Z,78.77
2018-12-26T13:08:41.842Z,80.15
2018-12-26T13:12:05.801Z,77.58
2018-12-26T13:15:48.813Z,77.69
2018-12-26T13:19:05.747Z,77.65
2018-12-26T13:22:48.981Z,77.06
2018-12-26T13:26:13.021Z,78.13
2018-12-26T13:29:36.967Z,77.19
2018-12-26T13:36:44.163Z,78.97
2018-12-26T13:43:58.539Z,77.46
2018-12-26T13:47:22.868Z,80.49
2018-12-26T13:50:46.842Z,85.48
2018-12-26T13:54:10.817Z,87.00
2018-12-26T13:57:34.777Z,88.43
2018-12-26T14:00:58.747Z,90.01
2018-12-26T14:04:23.075Z,89.97
2018-12-26T14:07:47.065Z,90.53
2018-12-26T14:11:11.324Z,91.27
2018-12-26T14:14:35.648Z,93.08
2018-12-26T14:17:59.604Z,93.53
2018-12-26T14:21:16.658Z,93.87
2018-12-26T14:24:59.898Z,93.95
2018-12-26T14:28:23.874Z,94.66
2018-12-26T14:31:47.922Z,95.31
2018-12-26T14:35:11.875Z,96.42
2018-12-26T14:38:36.109Z,97.50
2018-12-26T14:42:00.124Z,97.59
2018-12-26T14:45:24.093Z,99.02
2018-12-26T14:48:48.052Z,99.00
2018-12-26T14:52:12.051Z,99.67
2018-12-26T14:55:44.510Z,100.00
2018-12-26T14:59:08.478Z,100.00
2018-12-26T15:02:32.692Z,100.00
2018-12-26T15:05:56.679Z,100.00
2018-12-26T15:09:20.892Z,100.00
2018-12-26T15:12:44.873Z,100.00
2018-12-26T15:16:09.109Z,100.00
2018-12-26T15:19:26.348Z,100.00
2018-12-26T15:22:31.048Z,100.00
2018-12-26T15:25:55.030Z,100.00
2018-12-26T15:29:19.009Z,100.00
2018-12-26T15:32:43.338Z,100.00
2018-12-26T15:36:07.324Z,100.00
2018-12-26T15:39:31.337Z,100.00
2018-12-26T15:42:55.398Z,100.00
2018-12-26T15:46:19.386Z,100.00
2018-12-26T15:53:47.167Z,100.00
2018-12-26T15:57:11.453Z,100.00
2018-12-26T16:00:37.576Z,100.00
2018-12-26T16:04:01.737Z,100.00
2018-12-26T16:07:25.714Z,100.00
2018-12-26T16:11:08.721Z,100.00
2018-12-26T16:14:32.974Z,100.00
2018-12-26T16:17:57.285Z,100.00
2018-12-26T16:21:14.352Z,100.00
2018-12-26T16:24:38.374Z,100.00
2018-12-26T16:28:02.401Z,100.00
2018-12-26T16:39:00.000Z,100.00
2018-12-26T16:42:24.262Z,100.00
2018-12-26T16:45:48.232Z,100.00
2018-12-26T16:49:12.212Z,100.00
2018-12-26T16:52:36.475Z,100.00
2018-12-26T16:56:00.437Z,100.00
2018-12-26T16:59:24.528Z,100.00
2018-12-26T17:02:29.388Z,100.00
2018-12-26T17:05:34.056Z,100.00
2018-12-26T17:08:58.098Z,100.00
2018-12-26T17:12:22.333Z,100.00
2018-12-26T17:19:09.597Z,100.00
2018-12-26T17:29:46.820Z,100.00
2018-12-26T17:33:10.826Z,100.00
2018-12-26T17:36:34.773Z,100.00
2018-12-26T17:39:41.692Z,100.00
2018-12-26T17:42:46.116Z,100.00
2018-12-26T17:45:51.024Z,100.00
2018-12-26T17:48:55.954Z,100.00
2018-12-26T17:52:00.869Z,100.00
2018-12-26T17:55:15.809Z,100.00
2018-12-26T17:58:20.476Z,100.00
2018-12-26T18:01:41.591Z,100.00
2018-12-26T18:04:46.578Z,100.00
2018-12-26T18:07:51.229Z,100.00
2018-12-26T18:10:56.003Z,100.00
2018-12-26T18:14:00.651Z,100.00
2018-12-26T18:17:05.627Z,100.00
2018-12-26T18:20:10.534Z,100.00
2018-12-26T18:23:15.304Z,100.00
2018-12-26T18:26:20.033Z,100.00
2018-12-26T18:29:24.707Z,100.00
2018-12-26T18:32:29.599Z,100.00
2018-12-26T18:35:34.347Z,100.00
2018-12-26T18:38:38.987Z,100.00
2018-12-26T18:41:43.659Z,100.00
2018-12-26T18:44:48.322Z,100.00
2018-12-26T18:47:53.317Z,100.00
2018-12-26T18:50:57.968Z,100.00
2018-12-26T18:54:02.969Z,100.00
2018-12-26T18:57:07.677Z,100.00
2018-12-26T19:00:12.492Z,100.00
2018-12-26T19:03:17.369Z,100.00
2018-12-26T19:06:22.400Z,100.00
2018-12-26T19:09:27.343Z,100.00
2018-12-26T19:12:32.274Z,100.00
2018-12-26T19:15:36.943Z,100.00
2018-12-26T19:18:41.678Z,100.00
2018-12-26T19:21:46.326Z,100.00
2018-12-26T19:24:51.446Z,100.00
2018-12-26T19:27:56.537Z,100.00
2018-12-26T19:31:01.165Z,100.00
2018-12-26T19:34:05.815Z,100.00
2018-12-26T19:37:10.484Z,100.00
2018-12-26T19:40:15.445Z,100.00
2018-12-26T19:43:20.098Z,100.00
2018-12-26T19:46:24.733Z,100.00
2018-12-26T19:49:29.381Z,100.00
2018-12-26T19:52:34.035Z,100.00
2018-12-26T19:55:39.222Z,100.00
2018-12-26T19:58:44.283Z,100.00
2018-12-26T20:01:49.214Z,100.00
2018-12-26T20:04:54.878Z,100.00
2018-12-26T20:08:00.060Z,100.00
2018-12-26T20:11:04.712Z,100.00
2018-12-26T20:14:10.014Z,100.00
2018-12-26T20:17:15.029Z,100.00
2018-12-26T20:20:19.942Z,100.00
2018-12-26T20:23:24.602Z,100.00
2018-12-26T20:26:29.295Z,100.00
2018-12-26T20:29:33.940Z,100.00
2018-12-26T20:32:39.148Z,100.00
2018-12-26T20:35:44.634Z,100.00
2018-12-26T20:38:49.280Z,100.00
2018-12-26T20:41:54.047Z,100.00
2018-12-26T20:44:58.925Z,100.00
2018-12-26T20:48:03.604Z,100.00
2018-12-26T20:51:08.246Z,100.00
2018-12-26T20:54:13.188Z,100.00
2018-12-26T20:57:17.873Z,100.00
2018-12-26T21:00:22.535Z,100.00
2018-12-26T21:03:27.187Z,100.00
2018-12-26T21:06:32.089Z,100.00
2018-12-26T21:09:36.861Z,100.00
2018-12-26T21:12:41.498Z,100.00
2018-12-26T21:15:47.480Z,100.00
2018-12-26T21:18:52.167Z,100.00
2018-12-26T21:21:56.920Z,100.00
2018-12-26T21:25:01.577Z,100.00
2018-12-26T21:28:06.520Z,100.00
2018-12-26T21:31:11.188Z,100.00
2018-12-26T21:34:16.205Z,100.00
2018-12-26T21:37:20.850Z,100.00
2018-12-26T21:40:25.832Z,100.00
2018-12-26T21:43:30.767Z,100.00
2018-12-26T21:46:35.495Z,100.00
2018-12-26T21:49:40.201Z,100.00
2018-12-26T21:52:44.827Z,100.00
2018-12-26T21:55:49.472Z,100.00
2018-12-26T21:58:55.663Z,100.00
2018-12-26T22:02:00.353Z,100.00
2018-12-26T22:05:05.274Z,100.00
2018-12-26T22:08:11.813Z,100.00
2018-12-26T22:11:16.464Z,100.00
2018-12-26T22:14:21.113Z,100.00
2018-12-26T22:17:25.762Z,100.00
2018-12-26T22:20:30.686Z,100.00
2018-12-26T22:23:35.394Z,100.00
2018-12-26T22:26:43.335Z,100.00
2018-12-26T22:29:46.461Z,100.00
2018-12-26T22:32:55.705Z,100.00
2018-12-26T22:36:19.419Z,100.00
2018-12-26T22:39:24.402Z,100.00
2018-12-26T22:42:29.034Z,100.00
2018-12-26T22:45:43.713Z,100.00
2018-12-26T22:48:42.869Z,100.00
2018-12-26T22:51:47.637Z,100.00
2018-12-26T22:54:54.784Z,100.00
2018-12-26T22:57:58.986Z,100.00
2018-12-26T23:01:03.778Z,100.00
2018-12-26T23:04:08.564Z,100.00
2018-12-26T23:07:13.656Z,100.00
2018-12-26T23:10:18.244Z,100.00
2018-12-26T23:13:23.011Z,100.00
2018-12-26T23:16:27.674Z,100.00
2018-12-26T23:19:32.496Z,100.00
2018-12-26T23:22:37.170Z,100.00
2018-12-26T23:25:45.210Z,100.00
2018-12-26T23:28:49.944Z,100.00
2018-12-26T23:31:56.612Z,100.00
2018-12-26T23:35:01.256Z,100.00
2018-12-26T23:38:05.902Z,100.00
2018-12-26T23:44:40.392Z,100.00
2018-12-26T23:48:04.682Z,100.00
2018-12-26T23:54:57.865Z,100.00
2018-12-26T23:58:22.251Z,100.00
